createdAt,value
2023-01-03T00:18:28.895Z,19.8
2023-01-03T00:48:28.906Z,19.7
2023-01-03T01:18:28.869Z,19.6
2023-01-03T01:48:28.874Z,19.6
2023-01-03T02:18:28.897Z,19.6
2023-01-03T02:48:28.584Z,19.6
2023-01-03T03:18:28.870Z,19.5
2023-01-03T03:48:28.874Z,19.5
2023-01-03T04:18:28.941Z,19.5
2023-01-03T04:48:28.880Z,19.6
2023-01-03T05:18:28.885Z,19.9
2023-01-03T05:48:28.970Z,20.0
2023-01-03T06:18:28.622Z,20.0
2023-01-03T06:48:28.889Z,20.1
2023-01-03T07:18:28.679Z,20.1
2023-01-03T07:48:28.926Z,20.6
2023-01-03T08:18:29.039Z,20.8
2023-01-03T08:48:28.857Z,20.8
2023-01-03T09:18:28.885Z,20.8
2023-01-03T09:48:28.867Z,20.9
2023-01-03T10:18:28.915Z,20.9
2023-01-03T10:48:29.060Z,21.0
2023-01-03T11:18:28.751Z,21.0
2023-01-03T11:48:29.013Z,21.0
2023-01-03T12:18:28.909Z,21.0
2023-01-03T12:48:28.892Z,21.1
2023-01-03T13:18:28.861Z,21.1
2023-01-03T13:48:28.847Z,21.3
2023-01-03T14:18:28.848Z,21.4
2023-01-03T14:48:28.902Z,21.5
2023-01-03T15:18:28.827Z,21.5
2023-01-03T15:48:28.843Z,21.5
2023-01-03T16:18:28.848Z,21.4
2023-01-03T16:48:28.820Z,21.3
2023-01-03T17:18:28.520Z,21.3
2023-01-03T17:48:28.811Z,21.2
2023-01-03T18:18:28.795Z,21.1
2023-01-03T18:48:28.803Z,21.1
2023-01-03T19:18:28.817Z,21.1
2023-01-03T19:48:28.823Z,21.0
2023-01-03T20:18:28.790Z,20.9
2023-01-03T20:48:28.946Z,20.8
2023-01-03T21:18:28.827Z,20.7
2023-01-03T21:48:28.784Z,20.6
2023-01-03T22:18:28.791Z,20.6
2023-01-03T22:48:28.826Z,20.4
2023-01-03T23:18:28.799Z,20.3
2023-01-03T23:48:28.822Z,20.1
